Time;durP1;ratioP1;P1;durP2;ratioP2;P2;SDS_P1;SDS_P2;PMS_P1;PMS_P2;Temp;Humidity;BMP_temperature;BMP_pressure;BME280_temperature;BME280_humidity;BME280_pressure;Samples;Min_cycle;Max_cycle;Signal;HPM_P1;HPM_P2
2022/10/26 00:00:04;;;;;;;8.50;7.78;;;;;;;7.41;100.00;101378.69;1031545;28;20316;-83
2022/10/26 00:00:42;;;;;;;14.20;8.10;;;;;;;7.45;100.00;101377.31;1031382;28;20306;-82
2022/10/26 00:01:15;;;;;;;9.13;8.10;;;;;;;7.49;100.00;101375.94;1031833;28;20301;-83
2022/10/26 00:01:47;;;;;;;13.02;7.55;;;;;;;7.50;100.00;101382.88;1031833;28;20304;-83
2022/10/26 00:02:19;;;;;;;8.98;7.50;;;;;;;7.49;100.00;101378.59;1035538;28;20351;-83
2022/10/26 00:02:53;;;;;;;10.90;9.05;;;;;;;7.48;100.00;101376.94;1035637;28;20301;-83
2022/10/26 00:03:24;;;;;;;13.48;8.10;;;;;;;7.45;100.00;101372.00;1035256;28;20323;-82
2022/10/26 00:03:56;;;;;;;12.52;8.52;;;;;;;7.43;100.00;101376.66;1035945;28;20667;-83
2022/10/26 00:04:28;;;;;;;9.63;7.95;;;;;;;7.40;100.00;101372.56;1031368;28;20332;-83
2022/10/26 00:04:59;;;;;;;9.10;8.18;;;;;;;7.39;100.00;101378.00;1028918;28;20306;-83
2022/10/26 00:05:34;;;;;;;7.75;6.93;;;;;;;7.39;100.00;101372.72;1031907;28;20720;-83
2022/10/26 00:06:06;;;;;;;8.93;7.57;;;;;;;7.38;100.00;101376.38;1030928;28;20312;-82
2022/10/26 00:06:38;;;;;;;10.57;8.30;;;;;;;7.38;100.00;101379.00;1031471;28;20297;-83
2022/10/26 00:07:09;;;;;;;11.77;8.15;;;;;;;7.38;100.00;101371.06;1027781;28;20328;-83
2022/10/26 00:07:41;;;;;;;18.98;7.80;;;;;;;7.37;100.00;101372.06;1027578;28;20396;-83
2022/10/26 00:08:13;;;;;;;8.80;7.47;;;;;;;7.36;100.00;101373.91;1023911;28;20302;-83
2022/10/26 00:08:45;;;;;;;8.13;6.38;;;;;;;7.30;100.00;101374.63;1027895;28;20341;-83
2022/10/26 00:09:16;;;;;;;8.00;6.28;;;;;;;7.30;100.00;101371.16;1027597;28;20302;-83
2022/10/26 00:09:48;;;;;;;6.97;6.25;;;;;;;7.33;100.00;101374.28;1032221;28;20301;-83
2022/10/26 00:10:20;;;;;;;10.80;7.82;;;;;;;7.32;100.00;101371.81;1024313;28;20302;-83
2022/10/26 00:10:56;;;;;;;9.02;6.72;;;;;;;7.34;100.00;101369.78;1024514;28;20302;-83
2022/10/26 00:11:27;;;;;;;9.57;8.63;;;;;;;7.37;100.00;101369.41;1027571;28;20309;-83
2022/10/26 00:11:59;;;;;;;12.85;7.13;;;;;;;7.38;100.00;101363.13;1029742;28;20324;-83
2022/10/26 00:12:31;;;;;;;12.07;7.90;;;;;;;7.39;100.00;101362.94;1031236;28;20706;-83
2022/10/26 00:13:04;;;;;;;8.77;7.85;;;;;;;7.42;100.00;101367.06;1027602;28;20302;-83
2022/10/26 00:13:35;;;;;;;11.15;8.15;;;;;;;7.41;100.00;101368.06;1027510;28;20823;-83
2022/10/26 00:14:07;;;;;;;8.23;7.47;;;;;;;7.39;100.00;101372.72;1023984;28;20302;-83
2022/10/26 00:14:39;;;;;;;9.27;7.78;;;;;;;7.35;100.00;101361.66;1028519;28;20377;-83
2022/10/26 00:15:10;;;;;;;16.90;8.02;;;;;;;7.34;100.00;101364.50;1031349;28;20305;-83
2022/10/26 00:15:42;;;;;;;10.00;9.00;;;;;;;7.35;100.00;101366.13;1032276;28;20384;-83
2022/10/26 00:16:23;;;;;;;8.90;7.32;;;;;;;7.35;100.00;101366.13;1033704;28;20304;-83
2022/10/26 00:16:54;;;;;;;7.80;7.20;;;;;;;7.33;100.00;101366.31;1031784;28;20289;-83
2022/10/26 00:17:26;;;;;;;9.32;7.57;;;;;;;7.33;100.00;101365.50;1031943;28;20301;-83
2022/10/26 00:17:57;;;;;;;12.40;8.63;;;;;;;7.35;100.00;101369.59;1027150;28;20306;-83
2022/10/26 00:18:29;;;;;;;8.13;7.05;;;;;;;7.36;100.00;101368.59;1027628;28;20342;-83
2022/10/26 00:19:00;;;;;;;15.63;8.40;;;;;;;7.38;100.00;101365.75;1027424;28;20324;-83
2022/10/26 00:19:33;;;;;;;10.13;8.65;;;;;;;7.41;100.00;101360.13;1030753;28;20293;-83
2022/10/26 00:20:06;;;;;;;9.80;8.02;;;;;;;7.39;100.00;101362.94;1033865;28;20300;-84
2022/10/26 00:20:37;;;;;;;10.98;8.73;;;;;;;7.42;100.00;101357.28;1031164;28;20308;-83
2022/10/26 00:21:10;;;;;;;13.95;9.13;;;;;;;7.46;100.00;101360.41;1030145;28;20376;-83
2022/10/26 00:21:41;;;;;;;9.50;8.10;;;;;;;7.46;100.00;101368.34;1023742;28;20366;-83
2022/10/26 00:22:13;;;;;;;9.15;8.25;;;;;;;7.46;100.00;101371.00;1022202;29;20369;-83
2022/10/26 00:22:45;;;;;;;9.82;8.93;;;;;;;7.49;100.00;101361.84;1019835;29;20304;-83
2022/10/26 00:23:17;;;;;;;10.88;9.23;;;;;;;7.50;100.00;101364.31;1020205;29;20694;-83
2022/10/26 00:23:49;;;;;;;12.27;9.00;;;;;;;7.50;100.00;101363.50;1024756;28;20298;-82
2022/10/26 00:24:21;;;;;;;12.40;8.35;;;;;;;7.37;100.00;101359.63;1027408;28;20298;-83
2022/10/26 00:24:52;;;;;;;13.68;8.55;;;;;;;7.41;100.00;101360.94;1028252;28;20350;-83
2022/10/26 00:25:24;;;;;;;11.18;8.85;;;;;;;7.46;100.00;101357.75;1031938;28;20306;-83
2022/10/26 00:25:56;;;;;;;15.20;10.00;;;;;;;7.49;100.00;101360.03;1035852;28;20305;-83
2022/10/26 00:26:27;;;;;;;11.93;9.80;;;;;;;7.53;100.00;101357.84;1033918;28;20289;-82
2022/10/26 00:26:59;;;;;;;14.13;10.05;;;;;;;7.53;100.00;101361.31;1034784;28;20375;-83
2022/10/26 00:27:33;;;;;;;12.52;10.18;;;;;;;7.55;100.00;101361.13;1035690;28;20351;-83
2022/10/26 00:28:04;;;;;;;11.50;9.85;;;;;;;7.59;100.00;101363.22;1035526;28;20300;-83
2022/10/26 00:28:36;;;;;;;11.88;9.80;;;;;;;7.62;100.00;101357.53;1032250;28;20313;-83
2022/10/26 00:29:10;;;;;;;14.93;11.25;;;;;;;7.66;100.00;101358.00;1032234;28;20304;-83
2022/10/26 00:29:42;;;;;;;14.25;10.32;;;;;;;7.66;100.00;101361.47;1027504;28;20406;-83
2022/10/26 00:30:13;;;;;;;16.83;11.55;;;;;;;7.68;100.00;101356.81;1028227;28;20301;-82
2022/10/26 00:30:45;;;;;;;14.75;11.40;;;;;;;7.70;100.00;101357.47;1031506;28;20308;-83
2022/10/26 00:31:16;;;;;;;19.05;11.35;;;;;;;7.81;100.00;101355.34;1034376;28;20307;-83
2022/10/26 00:31:48;;;;;;;13.52;10.80;;;;;;;7.77;100.00;101354.06;1035589;28;20945;-83
2022/10/26 00:32:20;;;;;;;12.13;10.20;;;;;;;7.75;100.00;101360.38;1035437;28;20301;-83
2022/10/26 00:32:51;;;;;;;14.25;11.15;;;;;;;7.73;100.00;101348.31;1035030;28;20668;-83
2022/10/26 00:33:23;;;;;;;12.82;10.25;;;;;;;7.70;100.00;101349.50;1029775;28;20297;-83
2022/10/26 00:33:56;;;;;;;17.67;11.30;;;;;;;7.70;100.00;101357.47;1031525;28;20297;-83
2022/10/26 00:34:27;;;;;;;14.35;11.70;;;;;;;7.76;100.00;101355.91;1027260;28;20317;-83
2022/10/26 00:34:59;;;;;;;14.32;11.63;;;;;;;7.80;100.00;101354.50;1028481;28;20313;-83
2022/10/26 00:35:53;;;;;;;15.82;11.55;;;;;;;7.81;100.00;101350.03;1029143;28;20798;-83
2022/10/26 00:36:25;;;;;;;16.45;10.57;;;;;;;7.88;100.00;101356.22;1027361;28;20325;-83
2022/10/26 00:36:57;;;;;;;13.23;10.30;;;;;;;7.91;100.00;101354.03;1025897;28;20400;-83
2022/10/26 00:37:29;;;;;;;16.83;10.75;;;;;;;7.93;100.00;101357.31;1031174;28;20664;-83
2022/10/26 00:38:00;;;;;;;13.35;10.73;;;;;;;7.94;100.00;101353.69;1027390;28;20739;-83
2022/10/26 00:38:32;;;;;;;15.00;11.30;;;;;;;8.00;100.00;101360.06;1027692;28;20302;-83
2022/10/26 00:39:03;;;;;;;20.02;11.25;;;;;;;8.05;100.00;101353.19;1027716;28;20294;-83
2022/10/26 00:39:35;;;;;;;18.25;11.95;;;;;;;8.09;100.00;101356.28;1027625;28;20702;-83
2022/10/26 00:40:07;;;;;;;18.27;12.05;;;;;;;8.11;100.00;101356.09;1031317;28;20308;-83
2022/10/26 00:40:39;;;;;;;13.73;12.32;;;;;;;8.08;100.00;101357.28;1029894;28;20298;-83
2022/10/26 00:41:14;;;;;;;19.83;12.48;;;;;;;8.09;100.00;101356.28;1024814;28;20299;-83
2022/10/26 00:41:45;;;;;;;12.50;10.82;;;;;;;8.10;100.00;101355.28;1031091;28;20833;-83
2022/10/26 00:42:19;;;;;;;22.00;13.95;;;;;;;8.11;100.00;101351.59;1028709;28;20748;-83
2022/10/26 00:42:51;;;;;;;14.60;13.13;;;;;;;8.15;100.00;101352.06;1027618;28;20306;-83
2022/10/26 00:43:28;;;;;;;15.13;13.13;;;;;;;8.15;100.00;101352.06;1018777;29;20333;-82
2022/10/26 00:44:18;;;;;;;16.40;13.45;;;;;;;8.14;100.00;101351.22;1025207;28;20306;-83
2022/10/26 00:45:03;;;;;;;14.40;12.90;;;;;;;8.09;100.00;101350.97;1029493;28;20888;-83
2022/10/26 00:45:35;;;;;;;22.30;12.48;;;;;;;8.12;100.00;101353.25;1031670;28;20294;-83
2022/10/26 00:46:13;;;;;;;18.85;11.35;;;;;;;8.17;100.00;101356.16;1030326;28;20305;-83
2022/10/26 00:46:45;;;;;;;18.17;12.50;;;;;;;8.19;100.00;101345.34;1033925;28;20304;-83
2022/10/26 00:47:56;;;;;;;15.65;11.45;;;;;;;8.20;100.00;101342.50;1035359;28;20297;-83
2022/10/26 00:48:33;;;;;;;13.60;9.88;;;;;;;8.20;100.00;101339.84;1022538;29;20303;-83
2022/10/26 00:49:11;;;;;;;23.45;12.48;;;;;;;8.23;100.00;101344.81;1019466;29;20443;-83
2022/10/26 00:49:47;;;;;;;14.52;11.60;;;;;;;8.24;100.00;101346.47;1019138;29;20468;-83
2022/10/26 00:50:22;;;;;;;12.50;10.48;;;;;;;8.25;100.00;101342.78;1025777;28;20299;-83
2022/10/26 00:50:55;;;;;;;13.25;11.82;;;;;;;8.26;100.00;101339.13;1029106;28;20302;-82
2022/10/26 00:51:34;;;;;;;14.88;10.90;;;;;;;8.26;100.00;101344.44;1019872;29;20330;-83
2022/10/26 00:52:07;;;;;;;16.10;11.60;;;;;;;8.30;100.00;101340.38;1014872;29;20323;-83
2022/10/26 00:52:39;;;;;;;16.75;12.27;;;;;;;8.31;100.00;101343.88;1014798;29;20315;-83
2022/10/26 00:53:11;;;;;;;14.93;12.35;;;;;;;8.28;100.00;101347.72;1016736;29;20304;-82
2022/10/26 00:53:43;;;;;;;17.45;11.88;;;;;;;8.30;100.00;101340.38;1018845;29;20303;-83
2022/10/26 00:54:19;;;;;;;17.77;12.10;;;;;;;8.33;100.00;101336.53;1020441;28;20658;-82
2022/10/26 00:54:52;;;;;;;15.05;11.73;;;;;;;8.33;100.00;101342.69;1023327;28;20306;-83
2022/10/26 00:55:28;;;;;;;14.60;12.63;;;;;;;8.32;100.00;101343.69;1019783;29;20307;-83
2022/10/26 00:56:00;;;;;;;17.67;12.75;;;;;;;8.33;100.00;101350.66;1023646;28;20299;-83
2022/10/26 00:56:33;;;;;;;17.80;12.32;;;;;;;8.34;100.00;101347.00;1029031;28;20306;-83
2022/10/26 00:57:05;;;;;;;16.38;12.82;;;;;;;8.34;100.00;101339.03;1027037;28;20308;-83
2022/10/26 00:57:38;;;;;;;15.80;13.20;;;;;;;8.34;100.00;101347.00;1024225;28;20291;-83
2022/10/26 00:58:10;;;;;;;18.77;12.70;;;;;;;8.36;100.00;101344.16;1023909;28;20397;-82
2022/10/26 00:58:42;;;;;;;17.92;13.68;;;;;;;8.38;100.00;101342.13;1020355;29;20303;-83
2022/10/26 00:59:14;;;;;;;15.25;12.70;;;;;;;8.39;100.00;101342.94;1024748;28;20362;-83
2022/10/26 00:59:46;;;;;;;18.52;12.63;;;;;;;8.40;100.00;101347.25;1028030;28;20298;-82
2022/10/26 01:00:18;;;;;;;19.10;14.05;;;;;;;8.40;100.00;101345.41;1021692;28;20342;-83
2022/10/26 01:00:50;;;;;;;15.18;12.60;;;;;;;8.43;100.00;101344.19;1027368;28;20840;-83
2022/10/26 01:01:22;;;;;;;17.77;14.25;;;;;;;8.42;100.00;101337.25;1024240;28;20299;-83
2022/10/26 01:01:53;;;;;;;19.95;13.30;;;;;;;8.37;100.00;101335.19;1023717;28;20303;-83
2022/10/26 01:02:25;;;;;;;18.67;13.10;;;;;;;8.38;100.00;101341.31;1031259;28;20304;-83
2022/10/26 01:02:59;;;;;;;16.23;12.57;;;;;;;8.38;100.00;101341.31;1031707;28;20408;-83
2022/10/26 01:03:32;;;;;;;17.50;13.32;;;;;;;8.39;100.00;101342.94;1030026;28;20353;-83
2022/10/26 01:04:03;;;;;;;15.32;12.40;;;;;;;8.39;100.00;101340.28;1030719;28;20302;-83
2022/10/26 01:04:35;;;;;;;17.08;12.80;;;;;;;8.39;100.00;101342.94;1031302;28;20301;-82
2022/10/26 01:05:07;;;;;;;15.40;12.93;;;;;;;8.36;100.00;101339.66;1027609;28;20302;-83
2022/10/26 01:05:40;;;;;;;18.70;13.77;;;;;;;8.33;100.00;101340.03;1025321;28;20327;-83
2022/10/26 01:06:12;;;;;;;16.90;12.23;;;;;;;8.32;100.00;101333.06;1030002;28;20320;-82
2022/10/26 01:06:44;;;;;;;19.52;14.23;;;;;;;8.33;100.00;101341.84;1032154;28;20321;-83
2022/10/26 01:07:16;;;;;;;18.25;13.68;;;;;;;8.32;100.00;101330.41;1035608;28;20296;-83
2022/10/26 01:07:47;;;;;;;21.70;12.25;;;;;;;8.31;100.00;101338.56;1035156;28;20411;-83
2022/10/26 01:08:19;;;;;;;16.20;12.88;;;;;;;8.32;100.00;101338.38;1034806;28;20307;-82
2022/10/26 01:08:51;;;;;;;22.48;12.70;;;;;;;8.33;100.00;101337.38;1027383;28;20694;-83
2022/10/26 01:09:23;;;;;;;14.88;12.88;;;;;;;8.34;100.00;101344.34;1026413;28;20297;-83
2022/10/26 01:09:54;;;;;;;15.80;13.88;;;;;;;8.35;100.00;101345.97;1026049;28;20669;-83
2022/10/26 01:10:29;;;;;;;29.98;13.85;;;;;;;8.35;100.00;101338.03;1029166;28;20443;-83
2022/10/26 01:11:01;;;;;;;20.27;13.05;;;;;;;8.36;100.00;101339.66;1032531;28;20400;-83
2022/10/26 01:11:32;;;;;;;21.77;12.60;;;;;;;8.35;100.00;101339.84;1035270;28;20390;-83
2022/10/26 01:12:04;;;;;;;17.52;13.82;;;;;;;8.33;100.00;101334.72;1035272;28;20292;-83
2022/10/26 01:12:36;;;;;;;21.38;14.20;;;;;;;8.28;100.00;101331.81;1031630;28;20301;-83
2022/10/26 01:13:08;;;;;;;18.05;12.65;;;;;;;8.32;100.00;101337.53;1027084;28;20342;-83
2022/10/26 01:13:41;;;;;;;13.82;11.73;;;;;;;8.31;100.00;101330.59;1023355;28;20307;-83
2022/10/26 01:14:14;;;;;;;17.05;12.70;;;;;;;8.28;100.00;101329.16;1026472;28;20361;-83
2022/10/26 01:14:46;;;;;;;20.58;12.60;;;;;;;8.30;100.00;101329.78;1031558;28;20309;-83
2022/10/26 01:15:20;;;;;;;15.68;12.27;;;;;;;8.32;100.00;101332.25;1028604;28;20305;-83
2022/10/26 01:16:00;;;;;;;19.83;12.93;;;;;;;8.28;100.00;101326.50;1031249;28;20348;-83
2022/10/26 01:16:38;;;;;;;16.95;12.15;;;;;;;8.30;100.00;101328.94;1031170;28;20301;-82
2022/10/26 01:17:31;;;;;;;17.38;12.00;;;;;;;8.31;100.00;101326.13;1031558;28;20471;-83
2022/10/26 01:18:09;;;;;;;16.27;12.10;;;;;;;8.32;100.00;101322.44;1034517;28;20069;-83
2022/10/26 01:19:09;;;;;;;17.08;11.65;;;;;;;8.30;100.00;101324.47;1030773;28;20748;-83
2022/10/26 01:20:05;;;;;;;13.73;11.68;;;;;;;8.31;100.00;101328.75;1031259;28;20320;-83
2022/10/26 01:20:58;;;;;;;18.73;11.05;;;;;;;8.32;100.00;101318.97;1033309;28;20301;-83
2022/10/26 01:21:37;;;;;;;15.45;12.63;;;;;;;8.32;100.00;101321.63;1030226;28;20305;-83
2022/10/26 01:22:32;;;;;;;13.77;11.38;;;;;;;8.31;100.00;101326.13;1023197;28;20712;-84
2022/10/26 01:23:25;;;;;;;15.13;11.73;;;;;;;8.31;100.00;101318.16;1027553;28;20380;-83
2022/10/26 01:24:08;;;;;;;13.65;10.30;;;;;;;8.31;100.00;101320.81;1031799;28;20302;-83
2022/10/26 01:24:49;;;;;;;14.98;10.55;;;;;;;8.34;100.00;101319.63;1031951;28;20316;-84
2022/10/26 01:25:40;;;;;;;13.15;9.82;;;;;;;8.39;100.00;101313.75;1031037;28;20301;-83
2022/10/26 01:26:31;;;;;;;15.68;9.68;;;;;;;8.30;100.00;101319.16;1031257;28;20046;-84
2022/10/26 01:27:12;;;;;;;16.80;9.85;;;;;;;8.30;100.00;101313.84;1031607;28;20361;-83
2022/10/26 01:27:46;;;;;;;14.63;10.23;;;;;;;8.23;100.00;101317.47;1026851;28;20298;-83
2022/10/26 01:28:23;;;;;;;11.57;9.60;;;;;;;8.22;100.00;101321.94;1027513;28;20081;-84
2022/10/26 01:29:17;;;;;;;10.85;9.10;;;;;;;8.21;100.00;101314.97;1029922;28;20367;-83
2022/10/26 01:30:30;;;;;;;11.98;8.35;;;;;;;8.23;100.00;101315.63;1031569;28;20302;-83
2022/10/26 01:31:07;;;;;;;15.38;9.15;;;;;;;8.20;100.00;101312.50;1019141;29;20311;-83
2022/10/26 01:31:48;;;;;;;13.73;10.60;;;;;;;8.17;100.00;101319.00;1025177;28;20527;-84
2022/10/26 01:32:30;;;;;;;15.75;9.43;;;;;;;8.17;100.00;101315.53;1027513;28;20286;-83
2022/10/26 01:33:20;;;;;;;13.57;9.00;;;;;;;8.11;100.00;101319.78;1023442;28;20340;-83
2022/10/26 01:34:03;;;;;;;11.75;8.98;;;;;;;8.14;100.00;101313.25;1027386;28;20290;-83
2022/10/26 01:34:50;;;;;;;15.05;9.52;;;;;;;8.17;100.00;101323.50;1031297;28;20069;-83
2022/10/26 01:35:54;;;;;;;12.48;9.90;;;;;;;8.17;100.00;101311.06;1031419;28;20297;-83
2022/10/26 01:36:33;;;;;;;20.17;9.40;;;;;;;8.18;100.00;101310.03;1018522;28;20308;-83
2022/10/26 01:37:11;;;;;;;21.83;10.43;;;;;;;8.19;100.00;101311.69;1033684;28;20312;-83
2022/10/26 01:37:56;;;;;;;11.63;8.75;;;;;;;8.16;100.00;101312.06;1035437;28;20316;-83
2022/10/26 01:38:46;;;;;;;14.85;8.77;;;;;;;8.15;100.00;101310.41;1035147;28;20300;-83
2022/10/26 01:39:24;;;;;;;14.75;10.55;;;;;;;8.20;100.00;101304.53;1033402;28;20578;-83
2022/10/26 01:40:19;;;;;;;14.68;9.95;;;;;;;8.25;100.00;101308.28;1025652;28;22055;-83
2022/10/26 01:41:32;;;;;;;16.02;8.65;;;;;;;8.24;100.00;101304.00;1025490;28;20291;-82
2022/10/26 01:42:04;;;;;;;19.70;10.77;;;;;;;8.28;100.00;101307.91;1019158;29;20299;-83
2022/10/26 01:42:40;;;;;;;20.25;10.77;;;;;;;8.27;100.00;101308.94;1030639;28;20633;-83
2022/10/26 01:43:13;;;;;;;13.38;9.82;;;;;;;8.27;100.00;101314.22;1026878;28;20307;-83
2022/10/26 01:43:53;;;;;;;15.25;11.43;;;;;;;8.30;100.00;101307.72;1023169;29;20306;-83
2022/10/26 01:44:35;;;;;;;17.33;9.45;;;;;;;8.31;100.00;101307.53;1021177;29;20781;-82
2022/10/26 01:45:08;;;;;;;14.07;9.77;;;;;;;8.32;100.00;101311.81;1025449;28;20784;-83
2022/10/26 01:45:43;;;;;;;16.90;9.65;;;;;;;8.32;100.00;101301.22;1030178;28;20823;-82
2022/10/26 01:46:16;;;;;;;12.68;10.18;;;;;;;8.32;100.00;101306.53;1030945;28;20306;-83
2022/10/26 01:46:49;;;;;;;13.43;10.77;;;;;;;8.32;100.00;101303.88;1027440;28;20298;-83
2022/10/26 01:47:22;;;;;;;12.77;9.85;;;;;;;8.32;100.00;101305.69;1023092;28;20310;-83
2022/10/26 01:47:55;;;;;;;13.43;10.70;;;;;;;8.31;100.00;101304.06;1020429;29;20296;-83
2022/10/26 01:48:28;;;;;;;13.45;9.95;;;;;;;8.31;100.00;101299.56;1023782;28;20357;-83
2022/10/26 01:49:05;;;;;;;12.63;9.90;;;;;;;8.31;100.00;101299.56;1023214;28;20306;-83
2022/10/26 01:49:41;;;;;;;12.57;9.30;;;;;;;8.31;100.00;101299.56;1023125;28;20295;-83
2022/10/26 01:50:12;;;;;;;17.90;11.20;;;;;;;8.40;100.00;101299.47;1029202;28;20862;-83
2022/10/26 01:50:46;;;;;;;13.48;9.68;;;;;;;8.40;100.00;101299.47;1032475;28;20312;-82
2022/10/26 01:51:19;;;;;;;15.65;9.90;;;;;;;8.40;100.00;101296.81;1028117;28;20345;-82
2022/10/26 01:51:50;;;;;;;16.27;10.07;;;;;;;8.41;100.00;101301.09;1023900;28;20506;-83
2022/10/26 01:52:22;;;;;;;20.92;11.63;;;;;;;8.40;100.00;101296.81;1024792;28;20310;-83
2022/10/26 01:52:54;;;;;;;13.77;11.00;;;;;;;8.40;100.00;101291.50;1028382;28;20314;-83
2022/10/26 01:53:27;;;;;;;14.05;11.23;;;;;;;8.41;100.00;101296.63;1035157;28;20304;-83
2022/10/26 01:53:59;;;;;;;16.00;10.63;;;;;;;8.40;100.00;101289.66;1033163;28;20401;-82
2022/10/26 01:54:34;;;;;;;11.57;10.10;;;;;;;8.42;100.00;101294.78;1030631;28;20297;-83
2022/10/26 01:55:40;;;;;;;18.30;11.38;;;;;;;8.44;100.00;101292.75;1027174;28;20351;-82
2022/10/26 01:56:22;;;;;;;17.88;9.85;;;;;;;8.46;100.00;101288.06;1025762;28;20086;-82
2022/10/26 01:57:00;;;;;;;11.35;9.93;;;;;;;8.45;100.00;101289.91;1025206;28;20692;-82
2022/10/26 01:57:34;;;;;;;15.27;11.18;;;;;;;8.45;100.00;101289.91;1026604;28;20781;-82
2022/10/26 01:58:28;;;;;;;17.48;11.45;;;;;;;8.44;100.00;101287.44;1028036;28;20356;-82
2022/10/26 01:59:20;;;;;;;13.32;10.38;;;;;;;8.44;100.00;101288.28;1025294;28;20349;-82
2022/10/26 01:59:57;;;;;;;15.50;10.98;;;;;;;8.40;100.00;101291.50;1030251;28;20351;-82
2022/10/26 02:00:32;;;;;;;16.02;9.85;;;;;;;8.42;100.00;101284.97;1028460;28;20290;-83
2022/10/26 02:01:19;;;;;;;16.88;11.38;;;;;;;8.45;100.00;101291.75;1031071;28;20293;-82
2022/10/26 02:02:28;;;;;;;15.27;10.77;;;;;;;8.48;100.00;101289.53;1033867;28;20893;-82
2022/10/26 02:03:15;;;;;;;12.02;8.43;;;;;;;8.45;100.00;101281.13;1035277;28;20786;-82
2022/10/26 02:03:57;;;;;;;11.95;9.15;;;;;;;8.44;100.00;101287.44;1030786;28;20695;-82
2022/10/26 02:04:59;;;;;;;16.08;10.45;;;;;;;8.44;100.00;101282.97;1031948;28;20297;-82
2022/10/26 02:05:46;;;;;;;19.23;12.27;;;;;;;8.49;100.00;101277.06;1031279;28;20305;-82
2022/10/26 02:06:36;;;;;;;14.18;9.70;;;;;;;8.51;100.00;101272.41;1030884;28;20363;-82
2022/10/26 02:07:30;;;;;;;14.27;10.68;;;;;;;8.54;100.00;101272.03;1021965;28;20406;-82
2022/10/26 02:08:19;;;;;;;14.80;9.63;;;;;;;8.58;100.00;101274.09;1019406;29;20837;-82
2022/10/26 02:09:19;;;;;;;11.98;10.07;;;;;;;8.60;100.00;101272.06;1025107;28;20344;-82
2022/10/26 02:10:09;;;;;;;17.67;10.70;;;;;;;8.58;100.00;101268.78;1032076;28;20298;-82
2022/10/26 02:11:11;;;;;;;15.32;10.20;;;;;;;8.58;100.00;101268.78;1032228;28;20313;-82
2022/10/26 02:11:48;;;;;;;14.60;10.23;;;;;;;8.62;100.00;101270.03;1026486;28;20299;-82
2022/10/26 02:12:40;;;;;;;15.35;11.02;;;;;;;8.63;100.00;101268.22;1031121;28;20044;-82
2022/10/26 02:13:27;;;;;;;15.98;10.27;;;;;;;8.65;100.00;101266.19;1026380;28;20361;-82
2022/10/26 02:14:10;;;;;;;14.52;11.23;;;;;;;8.65;100.00;101263.53;1023156;28;20906;-82
2022/10/26 02:14:49;;;;;;;17.73;10.65;;;;;;;8.65;100.00;101264.34;1025680;28;20292;-82
2022/10/26 02:15:25;;;;;;;13.65;11.25;;;;;;;8.68;100.00;101263.97;1030970;28;20289;-82
2022/10/26 02:16:09;;;;;;;16.75;11.55;;;;;;;8.70;100.00;101261.09;1030633;28;20297;-82
2022/10/26 02:16:50;;;;;;;13.95;10.68;;;;;;;8.76;100.00;101262.97;1027475;28;20321;-82
2022/10/26 02:17:43;;;;;;;16.65;11.88;;;;;;;8.75;100.00;101256.03;1031103;28;20302;-82
2022/10/26 02:18:30;;;;;;;16.45;10.40;;;;;;;8.76;100.00;101255.00;1031013;28;20807;-82
2022/10/26 02:19:09;;;;;;;11.93;10.20;;;;;;;8.77;100.00;101254.03;1031034;28;20297;-82
2022/10/26 02:19:46;;;;;;;13.05;10.27;;;;;;;8.86;100.00;101254.69;1027271;28;20385;-82
2022/10/26 02:20:23;;;;;;;14.27;10.82;;;;;;;8.89;100.00;101255.13;1030935;28;20300;-81
2022/10/26 02:21:18;;;;;;;15.85;10.93;;;;;;;8.84;100.00;101252.22;1031245;28;20293;-82
2022/10/26 02:21:54;;;;;;;17.98;12.25;;;;;;;8.86;100.00;101254.69;1028838;28;20302;-82
2022/10/26 02:22:28;;;;;;;17.58;10.77;;;;;;;8.83;100.00;101250.59;1035167;28;20293;-82
2022/10/26 02:23:03;;;;;;;17.65;10.07;;;;;;;8.84;100.00;101252.22;1034696;28;20304;-82
2022/10/26 02:23:38;;;;;;;11.25;10.02;;;;;;;8.88;100.00;101253.47;1035062;28;20695;-82
2022/10/26 02:24:11;;;;;;;13.90;10.25;;;;;;;8.90;100.00;101243.47;1034895;28;20364;-82
2022/10/26 02:24:43;;;;;;;17.02;10.18;;;;;;;8.91;100.00;101258.41;1029480;28;21916;-82
2022/10/26 02:25:22;;;;;;;12.88;10.95;;;;;;;8.94;100.00;101255.34;1024771;28;20310;-83
2022/10/26 02:25:56;;;;;;;11.52;10.30;;;;;;;8.94;100.00;101258.00;1027138;28;20807;-82
2022/10/26 02:26:29;;;;;;;16.58;10.57;;;;;;;8.94;100.00;101252.69;1026792;28;20832;-82
2022/10/26 02:27:03;;;;;;;14.48;10.52;;;;;;;8.92;100.00;101254.72;1021841;28;20307;-82
2022/10/26 02:27:38;;;;;;;18.50;11.07;;;;;;;8.90;100.00;101251.44;1020585;29;20299;-82
2022/10/26 02:28:13;;;;;;;13.70;10.07;;;;;;;8.89;100.00;101255.13;1022425;28;20298;-82
2022/10/26 02:28:48;;;;;;;16.85;10.07;;;;;;;8.86;100.00;101255.50;1025166;28;20295;-82
2022/10/26 02:29:22;;;;;;;12.77;10.05;;;;;;;8.91;100.00;101255.75;1023097;28;20294;-83
2022/10/26 02:29:54;;;;;;;16.92;10.40;;;;;;;8.91;100.00;101246.94;1024657;28;20346;-82
2022/10/26 02:30:26;;;;;;;11.90;9.63;;;;;;;8.88;100.00;101253.47;1028222;28;20309;-82
2022/10/26 02:31:00;;;;;;;16.15;11.07;;;;;;;8.87;100.00;101251.00;1031211;28;20293;-82
2022/10/26 02:31:32;;;;;;;14.52;9.95;;;;;;;8.86;100.00;101244.06;1031815;28;20316;-82
2022/10/26 02:32:05;;;;;;;12.00;9.45;;;;;;;8.87;100.00;101238.56;1030533;28;20305;-81
2022/10/26 02:32:41;;;;;;;15.77;9.10;;;;;;;8.84;100.00;101236.28;1030080;28;20313;-82
2022/10/26 02:33:14;;;;;;;21.90;9.65;;;;;;;8.85;100.00;101237.94;1028411;28;20298;-82
2022/10/26 02:33:49;;;;;;;12.45;10.52;;;;;;;8.86;100.00;101238.75;1028191;28;20813;-84
2022/10/26 02:34:23;;;;;;;15.82;9.90;;;;;;;8.90;100.00;101232.03;1035438;28;20293;-84
2022/10/26 02:34:56;;;;;;;21.85;12.18;;;;;;;8.91;100.00;101231.84;1030757;28;20309;-83
2022/10/26 02:35:29;;;;;;;15.88;8.88;;;;;;;8.94;100.00;101226.13;1031092;28;20985;-82
2022/10/26 02:36:04;;;;;;;10.13;8.80;;;;;;;8.98;100.00;101238.00;1032609;28;20305;-82
2022/10/26 02:36:40;;;;;;;12.63;9.77;;;;;;;9.01;100.00;101228.00;1032407;28;20632;-82
2022/10/26 02:37:15;;;;;;;10.77;8.60;;;;;;;9.00;100.00;101229.81;1030976;28;20309;-82
2022/10/26 02:37:47;;;;;;;15.05;9.73;;;;;;;9.03;100.00;101228.59;1027208;28;20669;-83
2022/10/26 02:38:19;;;;;;;11.43;9.57;;;;;;;9.10;100.00;101232.16;1020532;28;20812;-83
2022/10/26 02:38:52;;;;;;;14.43;8.68;;;;;;;9.09;100.00;101238.47;1022982;28;20298;-83
2022/10/26 02:39:25;;;;;;;12.35;9.27;;;;;;;9.06;100.00;101238.88;1023057;28;20413;-83
2022/10/26 02:39:57;;;;;;;13.75;9.48;;;;;;;9.07;100.00;101240.50;1023920;28;20306;-83
2022/10/26 02:40:30;;;;;;;11.50;9.02;;;;;;;9.03;100.00;101242.72;1029642;28;20313;-81
2022/10/26 02:41:03;;;;;;;10.00;8.32;;;;;;;9.04;100.00;101256.81;1031864;28;20333;-83
2022/10/26 02:41:35;;;;;;;12.57;9.20;;;;;;;9.02;100.00;101258.84;1028636;28;20305;-81
2022/10/26 02:42:08;;;;;;;12.85;9.65;;;;;;;9.03;100.00;101266.63;1030997;28;20309;-82
2022/10/26 02:42:42;;;;;;;12.40;9.10;;;;;;;9.04;100.00;101267.44;1030820;28;20310;-84
2022/10/26 02:43:19;;;;;;;14.98;8.60;;;;;;;9.02;100.00;101265.00;1027156;28;20298;-83
2022/10/26 02:44:18;;;;;;;12.23;8.45;;;;;;;9.03;100.00;101260.50;1028804;28;20305;-84
2022/10/26 02:44:53;;;;;;;12.63;8.25;;;;;;;8.98;100.00;101259.25;1026325;28;20305;-83
2022/10/26 02:45:29;;;;;;;11.10;7.85;;;;;;;8.95;100.00;101259.66;1028203;28;20376;-84
2022/10/26 02:46:11;;;;;;;10.48;8.60;;;;;;;8.91;100.00;101260.22;1027309;28;20362;-84
2022/10/26 02:46:43;;;;;;;10.68;8.07;;;;;;;8.89;100.00;101270.22;1018964;29;21009;-84
2022/10/26 02:47:16;;;;;;;15.38;8.10;;;;;;;8.87;100.00;101273.09;1021833;28;20307;-83
2022/10/26 02:47:48;;;;;;;14.57;8.85;;;;;;;8.86;100.00;101265.31;1016831;29;20307;-82
2022/10/26 02:48:20;;;;;;;16.05;7.80;;;;;;;8.86;100.00;101266.13;1020510;28;20307;-82
2022/10/26 02:48:53;;;;;;;9.82;8.23;;;;;;;8.86;100.00;101265.31;1026961;28;20349;-83